createdAt,value
2022-12-22T00:02:07.216Z,0.23
2022-12-22T00:04:53.342Z,0.16
2022-12-22T00:07:38.955Z,0.06
2022-12-22T00:10:25.313Z,-0.05
2022-12-22T00:13:11.203Z,-0.12
2022-12-22T00:15:57.441Z,-0.20
2022-12-22T00:18:43.183Z,-0.26
2022-12-22T00:21:32.784Z,-0.25
2022-12-22T00:24:18.931Z,-0.23
2022-12-22T00:27:05.622Z,-0.22
2022-12-22T00:29:57.290Z,-0.23
2022-12-22T00:32:46.810Z,-0.28
2022-12-22T00:35:33.871Z,-0.29
2022-12-22T00:38:20.020Z,-0.34
2022-12-22T00:41:05.585Z,-0.28
2022-12-22T00:43:51.467Z,-0.37
2022-12-22T00:46:38.067Z,-0.44
2022-12-22T00:49:24.192Z,-0.45
2022-12-22T00:52:09.728Z,-0.46
2022-12-22T00:54:58.113Z,-0.47
2022-12-22T00:57:45.498Z,-0.48
2022-12-22T01:00:36.836Z,-0.50
2022-12-22T01:03:23.575Z,-0.48
2022-12-22T01:06:09.818Z,-0.49
2022-12-22T01:08:55.371Z,-0.49
2022-12-22T01:11:41.174Z,-0.47
2022-12-22T01:14:32.591Z,-0.45
2022-12-22T01:17:19.085Z,-0.43
2022-12-22T01:20:06.270Z,-0.45
2022-12-22T01:22:52.357Z,-0.49
2022-12-22T01:25:38.393Z,-0.52
2022-12-22T01:28:25.173Z,-0.53
2022-12-22T01:31:10.906Z,-0.57
2022-12-22T01:33:57.003Z,-0.59
2022-12-22T01:36:42.487Z,-0.61
2022-12-22T01:39:28.672Z,-0.55
2022-12-22T01:42:14.664Z,-0.56
2022-12-22T01:45:00.473Z,-0.45
2022-12-22T01:47:46.076Z,-0.40
2022-12-22T01:50:36.428Z,-0.31
2022-12-22T01:53:26.215Z,-0.26
2022-12-22T01:56:12.848Z,-0.16
2022-12-22T01:59:00.961Z,-0.10
2022-12-22T02:01:50.100Z,-0.08
2022-12-22T02:04:37.683Z,-0.05
2022-12-22T02:07:39.231Z,-0.03
2022-12-22T02:10:40.365Z,0.00
2022-12-22T02:13:35.247Z,0.07
2022-12-22T02:16:33.591Z,0.04
2022-12-22T02:19:36.798Z,0.08
2022-12-22T02:22:46.835Z,0.08
2022-12-22T02:25:38.680Z,0.07
2022-12-22T02:28:25.382Z,0.08
2022-12-22T02:31:11.991Z,0.13
2022-12-22T02:33:57.574Z,0.14
2022-12-22T02:37:02.229Z,0.14
2022-12-22T02:40:17.281Z,0.15
2022-12-22T02:43:16.771Z,0.20
2022-12-22T02:46:18.482Z,0.15
2022-12-22T02:49:11.150Z,0.13
2022-12-22T02:52:04.550Z,0.19
2022-12-22T02:54:52.097Z,0.22
2022-12-22T02:57:38.113Z,0.19
2022-12-22T03:00:25.121Z,0.20
2022-12-22T03:03:11.180Z,0.17
2022-12-22T03:05:57.297Z,0.15
2022-12-22T03:08:45.332Z,0.12
2022-12-22T03:11:31.573Z,0.06
2022-12-22T03:14:17.020Z,-0.05
2022-12-22T03:17:03.016Z,-0.14
2022-12-22T03:19:48.558Z,-0.12
2022-12-22T03:22:34.478Z,-0.20
2022-12-22T03:25:20.162Z,-0.30
2022-12-22T03:27:47.575Z,-0.32
2022-12-22T03:30:14.732Z,-0.38
2022-12-22T03:32:42.308Z,-0.37
2022-12-22T03:35:13.999Z,-0.43
2022-12-22T03:37:41.243Z,-0.51
2022-12-22T03:40:08.994Z,-0.58
2022-12-22T03:42:55.207Z,-0.68
2022-12-22T03:45:40.863Z,-0.73
2022-12-22T03:48:08.219Z,-0.81
2022-12-22T03:50:35.580Z,-0.84
2022-12-22T03:53:03.244Z,-0.90
2022-12-22T03:55:32.679Z,-0.89
2022-12-22T03:58:02.153Z,-0.86
2022-12-22T04:00:29.211Z,-0.78
2022-12-22T04:02:59.132Z,-0.72
2022-12-22T04:05:26.838Z,-0.66
2022-12-22T04:07:54.207Z,-0.67
2022-12-22T04:10:42.327Z,-0.67
2022-12-22T04:13:09.653Z,-0.63
2022-12-22T04:15:36.649Z,-0.61
2022-12-22T04:18:04.064Z,-0.61
2022-12-22T04:20:31.221Z,-0.61
2022-12-22T04:23:01.067Z,-0.58
2022-12-22T04:25:29.679Z,-0.58
2022-12-22T04:27:57.341Z,-0.62
2022-12-22T04:30:24.377Z,-0.59
2022-12-22T04:32:51.639Z,-0.56
2022-12-22T04:35:18.586Z,-0.55
2022-12-22T04:37:46.027Z,-0.56
2022-12-22T04:40:13.103Z,-0.58
2022-12-22T04:42:40.843Z,-0.55
2022-12-22T04:45:08.457Z,-0.53
2022-12-22T04:47:35.797Z,-0.54
2022-12-22T04:50:03.337Z,-0.56
2022-12-22T04:52:30.796Z,-0.54
2022-12-22T04:55:00.148Z,-0.55
2022-12-22T04:57:27.396Z,-0.56
2022-12-22T04:59:55.542Z,-0.58
2022-12-22T05:02:22.931Z,-0.55
2022-12-22T05:04:52.447Z,-0.59
2022-12-22T05:07:20.826Z,-0.56
2022-12-22T05:09:48.086Z,-0.58
2022-12-22T05:12:34.218Z,-0.56
2022-12-22T05:15:03.381Z,-0.56
2022-12-22T05:17:30.710Z,-0.59
2022-12-22T05:19:57.696Z,-0.52
2022-12-22T05:22:25.014Z,-0.54
2022-12-22T05:24:52.067Z,-0.54
2022-12-22T05:27:19.745Z,-0.54
2022-12-22T05:29:46.743Z,-0.53
2022-12-22T05:32:14.095Z,-0.56
2022-12-22T05:34:41.112Z,-0.59
2022-12-22T05:37:08.474Z,-0.57
2022-12-22T05:39:37.735Z,-0.57
2022-12-22T05:42:05.261Z,-0.60
2022-12-22T05:44:34.748Z,-0.62
2022-12-22T05:47:02.315Z,-0.64
2022-12-22T05:49:29.301Z,-0.65
2022-12-22T05:51:56.774Z,-0.64
2022-12-22T05:54:26.137Z,-0.69
2022-12-22T05:56:53.429Z,-0.67
2022-12-22T05:59:20.380Z,-0.64
2022-12-22T06:01:47.835Z,-0.65
2022-12-22T06:04:14.962Z,-0.65
2022-12-22T06:06:42.454Z,-0.63
2022-12-22T06:09:09.501Z,-0.65
2022-12-22T06:11:36.840Z,-0.62
2022-12-22T06:14:03.884Z,-0.59
2022-12-22T06:16:31.283Z,-0.57
2022-12-22T06:18:58.377Z,-0.57
2022-12-22T06:21:25.693Z,-0.56
2022-12-22T06:23:55.121Z,-0.55
2022-12-22T06:26:22.533Z,-0.59
2022-12-22T06:28:49.609Z,-0.56
2022-12-22T06:31:16.923Z,-0.55
2022-12-22T06:33:44.040Z,-0.57
2022-12-22T06:36:11.507Z,-0.56
2022-12-22T06:38:38.618Z,-0.53
2022-12-22T06:41:06.229Z,-0.55
2022-12-22T06:43:33.450Z,-0.58
2022-12-22T06:46:00.940Z,-0.53
2022-12-22T06:48:28.060Z,-0.53
2022-12-22T06:51:00.137Z,-0.53
2022-12-22T06:53:27.288Z,-0.54
2022-12-22T06:55:54.644Z,-0.52
2022-12-22T06:58:21.900Z,-0.59
2022-12-22T07:00:51.511Z,-0.63
2022-12-22T07:03:21.127Z,-0.63
2022-12-22T07:05:48.651Z,-0.63
2022-12-22T07:08:18.403Z,-0.61
2022-12-22T07:10:57.974Z,-0.61
2022-12-22T07:13:31.968Z,-0.56
2022-12-22T07:16:02.666Z,-0.56
2022-12-22T07:18:32.706Z,-0.58
2022-12-22T07:21:02.151Z,-0.59
2022-12-22T07:23:29.847Z,-0.62
2022-12-22T07:25:57.588Z,-0.57
2022-12-22T07:28:24.609Z,-0.54
2022-12-22T07:30:54.626Z,-0.52
2022-12-22T07:33:24.011Z,-0.49
2022-12-22T07:36:04.148Z,-0.44
2022-12-22T07:38:33.430Z,-0.43
2022-12-22T07:41:04.898Z,-0.44
2022-12-22T07:43:32.739Z,-0.44
2022-12-22T07:46:00.216Z,-0.37
2022-12-22T07:48:46.172Z,-0.34
2022-12-22T07:51:13.462Z,-0.36
2022-12-22T07:53:40.493Z,-0.31
2022-12-22T07:56:08.494Z,-0.29
2022-12-22T07:58:35.503Z,-0.29
2022-12-22T08:01:03.084Z,-0.28
2022-12-22T08:03:30.161Z,-0.24
2022-12-22T08:05:57.668Z,-0.21
2022-12-22T08:08:24.794Z,-0.25
2022-12-22T08:10:52.166Z,-0.21
2022-12-22T08:13:20.505Z,-0.28
2022-12-22T08:15:48.168Z,-0.24
2022-12-22T08:18:15.255Z,-0.24
2022-12-22T08:20:49.333Z,-0.17
2022-12-22T08:23:16.568Z,-0.15
2022-12-22T08:25:45.997Z,-0.19
2022-12-22T08:28:15.587Z,-0.10
2022-12-22T08:30:43.175Z,-0.03
2022-12-22T08:33:10.428Z,0.03
2022-12-22T08:35:37.814Z,0.08
2022-12-22T08:38:05.689Z,0.10
2022-12-22T08:40:33.980Z,0.17
2022-12-22T08:43:07.557Z,0.14
2022-12-22T08:45:34.974Z,0.14
2022-12-22T08:48:02.100Z,0.14
2022-12-22T08:50:29.641Z,0.18
2022-12-22T08:53:14.597Z,0.15
2022-12-22T08:55:56.165Z,0.17
2022-12-22T08:58:25.502Z,0.16
2022-12-22T09:00:52.935Z,0.17
2022-12-22T09:03:20.046Z,0.20
2022-12-22T09:05:47.465Z,0.28
2022-12-22T09:08:16.666Z,0.24
2022-12-22T09:10:44.359Z,0.25
2022-12-22T09:13:13.984Z,0.27
2022-12-22T09:15:41.312Z,0.25
2022-12-22T09:18:08.317Z,0.23
2022-12-22T09:20:35.635Z,0.17
2022-12-22T09:23:02.737Z,0.23
2022-12-22T09:25:30.097Z,0.14
2022-12-22T09:28:03.222Z,0.05
2022-12-22T09:30:30.815Z,0.11
2022-12-22T09:32:57.946Z,0.13
2022-12-22T09:35:27.348Z,0.09
2022-12-22T09:37:54.713Z,0.08
2022-12-22T09:40:22.409Z,0.10
2022-12-22T09:42:50.212Z,0.11
2022-12-22T09:45:21.470Z,0.13
2022-12-22T09:47:58.834Z,0.22
2022-12-22T09:50:27.809Z,0.23
2022-12-22T09:53:01.505Z,0.25
2022-12-22T09:55:45.646Z,0.25
2022-12-22T09:58:27.405Z,0.31
2022-12-22T10:01:06.904Z,0.34
2022-12-22T10:03:46.012Z,0.32
2022-12-22T10:06:39.599Z,0.35
2022-12-22T10:12:17.761Z,0.57
2022-12-22T10:14:48.132Z,0.56
2022-12-22T10:17:33.506Z,0.65
2022-12-22T10:20:19.394Z,0.58
2022-12-22T10:22:52.849Z,0.68
2022-12-22T10:26:28.027Z,0.79
2022-12-22T10:28:58.602Z,0.82
2022-12-22T10:31:31.299Z,0.83
2022-12-22T10:34:16.736Z,0.78
2022-12-22T10:36:48.813Z,0.82
2022-12-22T10:39:40.843Z,0.83
2022-12-22T10:42:11.251Z,0.87
2022-12-22T10:44:39.709Z,0.72
2022-12-22T10:47:27.046Z,0.85
2022-12-22T10:52:32.301Z,1.06
2022-12-22T10:55:28.857Z,1.08
2022-12-22T10:58:16.095Z,1.23
2022-12-22T11:00:45.197Z,1.30
2022-12-22T11:03:19.124Z,1.40
2022-12-22T11:05:49.878Z,1.43
2022-12-22T11:08:21.212Z,1.46
2022-12-22T11:11:03.245Z,1.37
2022-12-22T11:13:45.645Z,1.39
2022-12-22T11:16:45.491Z,1.35
2022-12-22T11:19:39.541Z,1.28
2022-12-22T11:22:06.817Z,1.25
2022-12-22T11:24:39.995Z,1.31
2022-12-22T11:27:25.635Z,1.26
2022-12-22T11:30:16.108Z,1.33
2022-12-22T11:33:16.710Z,1.38
2022-12-22T11:35:56.839Z,1.43
2022-12-22T11:38:35.355Z,1.49
2022-12-22T11:41:23.800Z,1.45
2022-12-22T11:44:36.283Z,1.54
2022-12-22T11:47:07.655Z,1.59
2022-12-22T11:50:59.945Z,1.58
2022-12-22T11:53:17.349Z,1.54
2022-12-22T11:56:03.559Z,1.54
2022-12-22T11:58:51.614Z,1.52
2022-12-22T12:01:56.631Z,1.54
2022-12-22T12:04:32.931Z,1.59
2022-12-22T12:07:25.188Z,1.60
2022-12-22T12:10:04.142Z,1.65
2022-12-22T12:13:31.560Z,1.69
2022-12-22T12:16:25.020Z,1.69
2022-12-22T12:19:19.090Z,1.61
2022-12-22T12:22:00.812Z,1.59
2022-12-22T12:25:02.276Z,1.60
2022-12-22T12:27:57.204Z,1.64
2022-12-22T12:30:38.798Z,1.58
2022-12-22T12:33:09.240Z,1.60
2022-12-22T12:35:49.174Z,1.54
2022-12-22T12:38:39.369Z,1.52
2022-12-22T12:41:21.018Z,1.61
2022-12-22T12:43:54.664Z,1.57
2022-12-22T12:46:54.840Z,1.63
2022-12-22T12:49:34.377Z,1.62
2022-12-22T12:52:14.245Z,1.57
2022-12-22T12:54:47.373Z,1.59
2022-12-22T12:57:50.829Z,1.54
2022-12-22T13:00:33.465Z,1.55
2022-12-22T13:03:16.369Z,1.61
2022-12-22T13:06:01.826Z,1.64
2022-12-22T13:08:34.011Z,1.71
2022-12-22T13:11:00.997Z,1.71
2022-12-22T13:13:30.498Z,1.71
2022-12-22T13:16:00.798Z,1.72
2022-12-22T13:18:34.835Z,1.65
2022-12-22T13:24:25.737Z,1.77
2022-12-22T13:26:56.248Z,1.79
2022-12-22T13:29:24.044Z,1.80
2022-12-22T13:32:05.140Z,1.80
2022-12-22T13:35:04.290Z,1.84
2022-12-22T13:37:29.478Z,1.85
2022-12-22T13:40:06.040Z,1.89
2022-12-22T13:42:37.570Z,1.93
2022-12-22T13:45:12.525Z,1.95
2022-12-22T13:47:43.888Z,2.09
2022-12-22T13:50:20.899Z,2.10
2022-12-22T13:52:49.599Z,2.19
2022-12-22T13:55:21.563Z,2.22
2022-12-22T13:57:58.443Z,2.23
2022-12-22T14:00:29.632Z,2.22
2022-12-22T14:02:59.528Z,2.24
2022-12-22T14:05:32.501Z,2.24
2022-12-22T14:08:06.455Z,2.20
2022-12-22T14:10:45.057Z,2.13
2022-12-22T14:13:18.368Z,2.00
2022-12-22T14:15:46.638Z,1.90
2022-12-22T14:18:26.497Z,1.79
2022-12-22T14:20:54.870Z,1.72
2022-12-22T14:23:27.107Z,1.63
2022-12-22T14:25:56.119Z,1.58
2022-12-22T14:28:27.547Z,1.55
2022-12-22T14:30:58.743Z,1.47
2022-12-22T14:33:28.610Z,1.37
2022-12-22T14:36:15.525Z,1.35
2022-12-22T14:38:48.963Z,1.27
2022-12-22T14:41:46.992Z,1.39
2022-12-22T14:44:20.005Z,1.28
2022-12-22T14:47:02.017Z,1.19
2022-12-22T14:49:29.274Z,1.16
2022-12-22T14:52:07.637Z,1.14
2022-12-22T14:54:35.031Z,1.18
2022-12-22T14:57:15.754Z,1.13
2022-12-22T15:00:00.488Z,1.08
2022-12-22T15:02:39.687Z,1.13
2022-12-22T15:05:27.082Z,1.19
2022-12-22T15:08:06.844Z,1.20
2022-12-22T15:10:43.913Z,1.17
2022-12-22T15:13:22.786Z,1.19
2022-12-22T15:15:51.429Z,1.17
2022-12-22T15:18:24.400Z,1.23
2022-12-22T15:20:56.051Z,1.20
2022-12-22T15:23:23.452Z,1.24
2022-12-22T15:25:50.605Z,1.23
2022-12-22T15:28:18.205Z,1.24
2022-12-22T15:30:45.492Z,1.19
2022-12-22T15:33:21.147Z,1.20
2022-12-22T15:35:48.359Z,1.16
2022-12-22T15:38:18.630Z,1.17
2022-12-22T15:40:45.892Z,1.14
2022-12-22T15:43:44.715Z,1.10
2022-12-22T15:46:05.036Z,1.05
2022-12-22T15:48:36.393Z,1.04
2022-12-22T15:51:05.846Z,1.02
2022-12-22T15:53:37.290Z,0.98
2022-12-22T15:56:04.582Z,1.03
2022-12-22T15:58:36.572Z,1.11
2022-12-22T16:01:03.869Z,1.21
2022-12-22T16:03:31.453Z,1.27
2022-12-22T16:05:59.040Z,1.30
2022-12-22T16:08:31.089Z,1.29
2022-12-22T16:10:58.941Z,1.34
2022-12-22T16:13:29.783Z,1.38
2022-12-22T16:15:58.200Z,1.38
2022-12-22T16:18:25.838Z,1.30
2022-12-22T16:20:53.424Z,1.28
2022-12-22T16:23:24.717Z,1.22
2022-12-22T16:26:00.681Z,1.18
2022-12-22T16:28:29.374Z,1.14
2022-12-22T16:30:56.663Z,1.12
2022-12-22T16:33:24.033Z,1.06
2022-12-22T16:35:51.321Z,0.97
2022-12-22T16:38:19.524Z,0.99
2022-12-22T16:40:50.730Z,0.87
2022-12-22T16:46:17.329Z,0.74
2022-12-22T16:48:55.757Z,0.61
2022-12-22T16:51:26.350Z,0.59
2022-12-22T16:53:54.505Z,0.51
2022-12-22T16:56:26.872Z,0.47
2022-12-22T16:58:54.342Z,0.43
2022-12-22T17:01:36.973Z,0.33
2022-12-22T17:04:09.408Z,0.36
2022-12-22T17:06:37.873Z,0.27
2022-12-22T17:09:12.067Z,0.19
2022-12-22T17:11:39.201Z,0.17
2022-12-22T17:14:25.514Z,0.11
2022-12-22T17:16:53.497Z,0.05
2022-12-22T17:19:20.893Z,0.00
2022-12-22T17:21:49.054Z,0.07
2022-12-22T17:24:22.875Z,0.07
2022-12-22T17:26:54.784Z,0.01
2022-12-22T17:29:26.453Z,0.01
2022-12-22T17:31:56.911Z,0.02
2022-12-22T17:34:24.454Z,0.02
2022-12-22T17:36:52.054Z,-0.01
2022-12-22T17:39:21.388Z,-0.03
2022-12-22T17:41:56.228Z,-0.04
2022-12-22T17:44:25.278Z,-0.07
2022-12-22T17:46:52.601Z,-0.04
2022-12-22T17:49:22.413Z,-0.05
2022-12-22T17:51:52.225Z,-0.05
2022-12-22T17:54:26.541Z,0.02
2022-12-22T17:56:58.811Z,0.08
2022-12-22T17:59:26.126Z,0.17
2022-12-22T18:01:53.307Z,0.19
2022-12-22T18:04:20.689Z,0.25
2022-12-22T18:06:48.325Z,0.26
2022-12-22T18:09:23.470Z,0.34
2022-12-22T18:11:51.013Z,0.38
2022-12-22T18:14:20.939Z,0.41
2022-12-22T18:16:48.224Z,0.42
2022-12-22T18:19:15.985Z,0.50
2022-12-22T18:21:44.073Z,0.55
2022-12-22T18:24:19.635Z,0.58
2022-12-22T18:26:47.623Z,0.64
2022-12-22T18:29:18.974Z,0.68
2022-12-22T18:31:48.322Z,0.71
2022-12-22T18:34:15.731Z,0.71
2022-12-22T18:36:45.579Z,0.79
2022-12-22T18:39:20.488Z,0.78
2022-12-22T18:41:48.460Z,0.77
2022-12-22T18:44:19.690Z,0.79
2022-12-22T18:46:47.319Z,0.84
2022-12-22T18:49:15.178Z,0.86
2022-12-22T18:51:44.552Z,0.90
2022-12-22T18:54:26.551Z,0.89
2022-12-22T18:56:53.991Z,0.91
2022-12-22T18:59:28.188Z,0.93
2022-12-22T19:02:12.783Z,0.94
2022-12-22T19:04:42.550Z,0.92
2022-12-22T19:07:16.670Z,0.94
2022-12-22T19:09:44.710Z,0.98
2022-12-22T19:12:17.998Z,0.98
2022-12-22T19:14:49.815Z,0.93
2022-12-22T19:17:26.251Z,0.92
2022-12-22T19:19:53.718Z,0.97
2022-12-22T19:22:20.978Z,0.95
2022-12-22T19:24:49.144Z,0.91
2022-12-22T19:27:27.979Z,0.89
2022-12-22T19:30:03.509Z,0.93
2022-12-22T19:32:40.283Z,0.94
2022-12-22T19:35:21.483Z,0.96
2022-12-22T19:37:50.986Z,0.98
2022-12-22T19:40:21.865Z,1.02
2022-12-22T19:42:51.786Z,1.04
2022-12-22T19:45:24.580Z,1.09
2022-12-22T19:47:53.921Z,1.21
2022-12-22T19:50:27.621Z,1.22
2022-12-22T19:52:59.157Z,1.23
2022-12-22T19:55:29.535Z,1.17
2022-12-22T19:57:57.081Z,1.22
2022-12-22T20:00:27.991Z,1.27
2022-12-22T20:02:57.116Z,1.27
2022-12-22T20:05:24.757Z,1.28
2022-12-22T20:07:53.817Z,1.34
2022-12-22T20:10:22.601Z,1.38
2022-12-22T20:12:53.054Z,1.40
2022-12-22T20:15:32.267Z,1.36
2022-12-22T20:18:00.207Z,1.39
2022-12-22T20:20:38.388Z,1.32
2022-12-22T20:23:13.126Z,1.24
2022-12-22T20:25:44.662Z,1.22
2022-12-22T20:28:19.871Z,1.20
2022-12-22T20:30:47.877Z,1.18
2022-12-22T20:33:17.916Z,1.17
2022-12-22T20:35:47.776Z,1.17
2022-12-22T20:38:20.244Z,1.21
2022-12-22T20:40:50.457Z,1.28
2022-12-22T20:43:20.828Z,1.30
2022-12-22T20:45:52.125Z,1.36
2022-12-22T20:48:39.691Z,1.41
2022-12-22T20:51:12.984Z,1.51
2022-12-22T20:53:40.552Z,1.60
2022-12-22T20:56:22.071Z,1.63
2022-12-22T20:58:53.925Z,1.72
2022-12-22T21:01:22.975Z,1.71
2022-12-22T21:03:50.942Z,1.80
2022-12-22T21:06:21.308Z,1.88
2022-12-22T21:08:48.693Z,1.91
2022-12-22T21:11:18.216Z,1.94
2022-12-22T21:13:45.806Z,1.98
2022-12-22T21:16:16.581Z,2.00
2022-12-22T21:18:43.719Z,2.09
2022-12-22T21:21:14.875Z,2.18
2022-12-22T21:23:42.599Z,2.29
2022-12-22T21:26:19.264Z,2.45
2022-12-22T21:28:46.536Z,2.54
2022-12-22T21:31:14.057Z,2.64
2022-12-22T21:33:41.420Z,2.79
2022-12-22T21:36:23.774Z,2.86
2022-12-22T21:38:56.290Z,2.91
2022-12-22T21:41:43.898Z,3.00
2022-12-22T21:44:14.778Z,3.14
2022-12-22T21:46:44.906Z,3.46
2022-12-22T21:49:21.861Z,3.80
2022-12-22T21:51:50.919Z,4.02
2022-12-22T21:54:19.684Z,4.37
2022-12-22T21:56:48.576Z,4.38
2022-12-22T21:59:16.331Z,4.38
2022-12-22T22:01:45.368Z,4.36
2022-12-22T22:04:13.679Z,4.39
2022-12-22T22:06:41.220Z,4.60
2022-12-22T22:09:12.966Z,4.65
2022-12-22T22:12:01.313Z,4.71
2022-12-22T22:14:28.437Z,4.70
2022-12-22T22:16:55.942Z,4.63
2022-12-22T22:19:23.170Z,4.49
2022-12-22T22:21:52.811Z,4.46
2022-12-22T22:24:20.124Z,4.39
2022-12-22T22:26:49.332Z,4.35
2022-12-22T22:29:16.503Z,4.36
2022-12-22T22:31:44.972Z,4.31
2022-12-22T22:34:12.172Z,4.31
2022-12-22T22:36:39.599Z,4.29
2022-12-22T22:39:06.628Z,4.32
2022-12-22T22:41:39.305Z,4.31
2022-12-22T22:44:10.149Z,4.33
2022-12-22T22:46:37.681Z,4.40
2022-12-22T22:49:06.945Z,4.40
2022-12-22T22:51:34.319Z,4.41
2022-12-22T22:54:01.307Z,4.38
2022-12-22T22:56:30.865Z,4.37
2022-12-22T22:58:59.141Z,4.37
2022-12-22T23:01:29.475Z,4.37
2022-12-22T23:03:59.567Z,4.43
2022-12-22T23:06:27.014Z,4.55
2022-12-22T23:08:54.483Z,4.55
2022-12-22T23:11:21.787Z,4.55
2022-12-22T23:13:56.541Z,4.82
2022-12-22T23:16:25.236Z,4.83
2022-12-22T23:18:53.752Z,4.80
2022-12-22T23:21:23.707Z,4.70
2022-12-22T23:23:57.923Z,4.57
2022-12-22T23:26:25.909Z,4.55
2022-12-22T23:29:02.611Z,4.45
2022-12-22T23:31:34.469Z,4.35
2022-12-22T23:34:02.002Z,4.28
2022-12-22T23:36:29.810Z,4.17
2022-12-22T23:38:57.375Z,4.00
2022-12-22T23:41:24.716Z,3.96
2022-12-22T23:43:53.797Z,3.86
2022-12-22T23:46:21.969Z,3.99
2022-12-22T23:48:53.825Z,4.01
2022-12-22T23:51:23.260Z,4.01
2022-12-22T23:53:50.426Z,3.93
2022-12-22T23:56:20.026Z,3.83
2022-12-22T23:58:50.957Z,3.71
